createdAt,value
2023-05-14T00:00:08.527Z,4.70
2023-05-14T00:02:56.122Z,4.50
2023-05-14T00:05:24.188Z,4.40
2023-05-14T00:07:51.663Z,3.90
2023-05-14T00:10:22.264Z,4.00
2023-05-14T00:12:51.777Z,4.20
2023-05-14T00:15:19.975Z,4.00
2023-05-14T00:17:47.514Z,3.90
2023-05-14T00:20:15.145Z,4.10
2023-05-14T00:22:42.708Z,3.90
2023-05-14T00:25:10.582Z,3.80
2023-05-14T00:27:38.240Z,3.60
2023-05-14T00:30:06.937Z,4.20
2023-05-14T00:32:34.589Z,3.60
2023-05-14T00:35:04.411Z,4.10
2023-05-14T00:37:32.213Z,4.10
2023-05-14T00:39:59.880Z,4.50
2023-05-14T00:42:27.793Z,4.40
2023-05-14T00:44:55.400Z,4.30
2023-05-14T00:47:23.142Z,4.60
2023-05-14T00:49:50.742Z,4.30
2023-05-14T00:52:18.744Z,4.80
2023-05-14T00:54:48.093Z,4.30
2023-05-14T00:57:15.734Z,4.30
2023-05-14T00:59:43.265Z,4.30
2023-05-14T01:02:11.389Z,4.60
2023-05-14T01:04:40.154Z,4.40
2023-05-14T01:07:40.406Z,4.50
2023-05-14T01:10:16.020Z,4.00
2023-05-14T01:12:59.479Z,4.30
2023-05-14T01:15:33.609Z,4.10
2023-05-14T01:18:07.829Z,4.30
2023-05-14T01:20:36.548Z,4.50
2023-05-14T01:23:04.109Z,4.30
2023-05-14T01:25:32.449Z,4.60
2023-05-14T01:28:03.028Z,4.90
2023-05-14T01:30:40.199Z,4.20
2023-05-14T01:33:13.857Z,4.30
2023-05-14T01:35:42.012Z,4.40
2023-05-14T01:38:13.888Z,4.10
2023-05-14T01:40:44.570Z,4.40
2023-05-14T01:43:12.624Z,4.00
2023-05-14T01:45:40.623Z,4.40
2023-05-14T01:48:08.535Z,4.10
2023-05-14T01:50:38.807Z,4.20
2023-05-14T01:53:06.611Z,4.20
2023-05-14T01:55:34.045Z,3.90
2023-05-14T01:58:01.627Z,4.10
2023-05-14T02:00:29.259Z,4.70
2023-05-14T02:02:56.836Z,4.30
2023-05-14T02:05:24.519Z,4.90
2023-05-14T02:07:52.161Z,4.20
2023-05-14T02:10:19.786Z,4.30
2023-05-14T02:12:47.489Z,4.70
2023-05-14T02:15:15.064Z,5.20
2023-05-14T02:17:42.748Z,4.20
2023-05-14T02:20:11.156Z,4.50
2023-05-14T02:22:41.169Z,4.40
2023-05-14T02:25:09.595Z,4.70
2023-05-14T02:27:37.159Z,4.50
2023-05-14T02:30:06.144Z,4.50
2023-05-14T02:32:33.753Z,4.50
2023-05-14T02:35:01.575Z,4.40
2023-05-14T02:37:29.238Z,4.70
2023-05-14T02:39:56.744Z,4.60
2023-05-14T02:42:24.316Z,4.30
2023-05-14T02:44:54.936Z,5.00
2023-05-14T02:47:22.619Z,4.50
2023-05-14T02:49:50.356Z,4.50
2023-05-14T02:52:17.914Z,4.70
2023-05-14T02:54:46.596Z,4.70
2023-05-14T02:57:14.117Z,5.20
2023-05-14T02:59:41.741Z,5.20
2023-05-14T03:02:09.628Z,5.40
2023-05-14T03:04:37.725Z,4.50
2023-05-14T03:07:05.539Z,4.60
2023-05-14T03:09:33.111Z,4.40
2023-05-14T03:12:01.521Z,4.30
2023-05-14T03:14:29.271Z,5.50
2023-05-14T03:16:56.772Z,4.10
2023-05-14T03:19:24.530Z,5.00
2023-05-14T03:21:52.060Z,4.20
2023-05-14T03:24:19.522Z,4.30
2023-05-14T03:26:48.151Z,4.50
2023-05-14T03:29:18.256Z,4.50
2023-05-14T03:31:45.914Z,4.80
2023-05-14T03:34:13.549Z,4.40
2023-05-14T03:36:41.143Z,5.20
2023-05-14T03:39:09.650Z,5.00
2023-05-14T03:41:37.717Z,5.20
2023-05-14T03:44:06.380Z,4.80
2023-05-14T03:46:34.268Z,5.30
2023-05-14T03:49:01.964Z,4.90
2023-05-14T03:51:29.681Z,4.90
2023-05-14T03:53:58.321Z,4.90
2023-05-14T03:56:26.294Z,4.90
2023-05-14T03:58:53.763Z,4.50
2023-05-14T04:01:21.423Z,4.70
2023-05-14T04:03:49.131Z,4.60
2023-05-14T04:06:16.769Z,4.60
2023-05-14T04:08:44.400Z,4.90
2023-05-14T04:11:11.914Z,4.80
2023-05-14T04:13:39.435Z,4.90
2023-05-14T04:16:07.101Z,4.50
2023-05-14T04:18:37.095Z,4.90
2023-05-14T04:21:04.933Z,4.30
2023-05-14T04:23:32.521Z,4.60
2023-05-14T04:26:00.590Z,4.60
2023-05-14T04:28:28.058Z,4.80
2023-05-14T04:30:56.946Z,5.00
2023-05-14T04:33:24.539Z,4.60
2023-05-14T04:35:52.823Z,4.40
2023-05-14T04:38:20.397Z,4.30
2023-05-14T04:40:47.883Z,4.40
2023-05-14T04:43:17.959Z,4.50
2023-05-14T04:45:45.664Z,4.20
2023-05-14T04:48:13.160Z,5.10
2023-05-14T04:50:40.763Z,5.50
2023-05-14T04:53:08.233Z,14.60
2023-05-14T04:55:35.758Z,10.50
2023-05-14T04:58:03.326Z,9.40
2023-05-14T05:00:30.834Z,6.50
2023-05-14T05:02:58.839Z,5.90
2023-05-14T05:05:26.661Z,6.00
2023-05-14T05:07:54.476Z,4.70
2023-05-14T05:10:22.233Z,5.20
2023-05-14T05:12:50.314Z,7.00
2023-05-14T05:15:17.917Z,12.20
2023-05-14T05:17:45.900Z,16.90
2023-05-14T05:20:13.892Z,14.10
2023-05-14T05:22:41.430Z,23.40
2023-05-14T05:25:09.443Z,19.70
2023-05-14T05:27:39.415Z,7.40
2023-05-14T05:30:08.371Z,5.50
2023-05-14T05:32:36.687Z,5.00
2023-05-14T05:35:05.016Z,5.20
2023-05-14T05:37:33.105Z,6.30
2023-05-14T05:40:00.767Z,7.80
2023-05-14T05:42:28.348Z,4.50
2023-05-14T05:44:56.293Z,4.30
2023-05-14T05:47:25.564Z,4.60
2023-05-14T05:49:54.048Z,5.80
2023-05-14T05:52:21.711Z,4.10
2023-05-14T05:54:49.292Z,3.70
2023-05-14T05:57:16.785Z,4.00
2023-05-14T05:59:44.492Z,4.30
2023-05-14T06:02:12.103Z,4.20
2023-05-14T06:04:39.761Z,4.60
2023-05-14T06:07:07.251Z,4.20
2023-05-14T06:09:34.737Z,4.80
2023-05-14T06:12:02.237Z,4.40
2023-05-14T06:14:29.793Z,4.00
2023-05-14T06:16:58.702Z,7.50
2023-05-14T06:19:26.431Z,4.80
2023-05-14T06:21:54.058Z,4.20
2023-05-14T06:24:21.686Z,4.00
2023-05-14T06:26:49.311Z,3.90
2023-05-14T06:29:17.047Z,3.70
2023-05-14T06:31:44.586Z,4.00
2023-05-14T06:34:12.241Z,3.80
2023-05-14T06:36:40.236Z,4.20
2023-05-14T06:39:07.730Z,4.10
2023-05-14T06:41:35.374Z,3.50
2023-05-14T06:44:02.921Z,4.00
2023-05-14T06:46:30.586Z,3.40
2023-05-14T06:48:59.515Z,3.80
2023-05-14T06:51:27.244Z,4.00
2023-05-14T06:53:58.847Z,3.70
2023-05-14T06:56:26.471Z,3.50
2023-05-14T06:58:54.052Z,3.30
2023-05-14T07:01:21.659Z,3.50
2023-05-14T07:03:49.233Z,3.10
2023-05-14T07:06:16.859Z,3.40
2023-05-14T07:08:47.319Z,3.10
2023-05-14T07:11:15.282Z,2.80
2023-05-14T07:13:42.960Z,3.10
2023-05-14T07:16:10.506Z,2.90
2023-05-14T07:18:38.086Z,3.00
2023-05-14T07:21:07.424Z,2.60
2023-05-14T07:23:38.473Z,2.40
2023-05-14T07:26:07.956Z,2.60
2023-05-14T07:28:35.829Z,2.60
2023-05-14T07:31:08.714Z,2.50
2023-05-14T07:33:36.465Z,5.30
2023-05-14T07:36:05.018Z,3.00
2023-05-14T07:38:32.798Z,2.70
2023-05-14T07:41:00.503Z,3.10
2023-05-14T07:43:28.161Z,2.50
2023-05-14T07:45:55.860Z,3.20
2023-05-14T07:48:23.626Z,5.00
2023-05-14T07:50:51.861Z,3.40
2023-05-14T07:53:19.533Z,3.00
2023-05-14T07:55:49.152Z,2.70
2023-05-14T07:58:16.673Z,2.60
2023-05-14T08:00:44.297Z,2.40
2023-05-14T08:03:11.959Z,3.40
2023-05-14T08:05:40.130Z,5.10
2023-05-14T08:08:07.717Z,2.90
2023-05-14T08:10:35.304Z,2.50
2023-05-14T08:13:03.682Z,2.70
2023-05-14T08:15:31.388Z,2.80
2023-05-14T08:18:03.304Z,2.80
2023-05-14T08:20:31.132Z,2.40
2023-05-14T08:22:58.685Z,2.40
2023-05-14T08:25:26.252Z,2.00
2023-05-14T08:27:54.220Z,3.50
2023-05-14T08:30:23.292Z,2.60
2023-05-14T08:32:51.342Z,2.20
2023-05-14T08:35:19.158Z,2.20
2023-05-14T08:37:46.757Z,3.50
2023-05-14T08:40:14.306Z,3.20
2023-05-14T08:42:44.709Z,2.80
2023-05-14T08:45:21.813Z,2.30
2023-05-14T08:47:51.023Z,2.30
2023-05-14T08:50:23.598Z,2.20
2023-05-14T08:52:52.856Z,2.20
2023-05-14T08:55:20.918Z,2.20
2023-05-14T08:57:49.086Z,2.70
2023-05-14T09:00:16.739Z,8.60
2023-05-14T09:02:44.949Z,3.40
2023-05-14T09:05:13.213Z,2.80
2023-05-14T09:07:41.306Z,2.70
2023-05-14T09:10:10.048Z,2.20
2023-05-14T09:12:37.753Z,2.50
2023-05-14T09:15:06.581Z,2.20
2023-05-14T09:17:34.804Z,2.40
2023-05-14T09:20:03.069Z,2.90
2023-05-14T09:22:33.436Z,2.10
2023-05-14T09:25:09.750Z,2.90
2023-05-14T09:27:38.381Z,2.40
2023-05-14T09:30:13.377Z,2.60
2023-05-14T09:32:45.903Z,2.10
2023-05-14T09:35:22.172Z,2.20
2023-05-14T09:37:54.650Z,2.00
2023-05-14T09:40:24.621Z,2.10
2023-05-14T09:42:53.359Z,2.60
2023-05-14T09:45:21.017Z,2.60
2023-05-14T09:47:49.687Z,2.10
2023-05-14T09:50:17.501Z,2.50
2023-05-14T09:52:45.028Z,2.40
2023-05-14T09:55:13.448Z,2.40
2023-05-14T09:57:40.985Z,2.60
2023-05-14T10:00:10.154Z,2.40
2023-05-14T10:02:40.556Z,2.50
2023-05-14T10:05:09.742Z,2.40
2023-05-14T10:07:42.657Z,2.70
2023-05-14T10:10:15.223Z,2.50
2023-05-14T10:12:46.238Z,2.40
2023-05-14T10:15:20.968Z,2.50
2023-05-14T10:17:57.109Z,2.30
2023-05-14T10:20:26.645Z,2.60
2023-05-14T10:22:54.374Z,2.50
2023-05-14T10:25:23.035Z,2.40
2023-05-14T10:27:53.434Z,2.00
2023-05-14T10:30:23.437Z,2.60
2023-05-14T10:33:09.461Z,2.60
2023-05-14T10:36:09.147Z,2.60
2023-05-14T10:38:38.277Z,2.50
2023-05-14T10:41:10.369Z,2.50
2023-05-14T10:43:39.781Z,2.50
2023-05-14T10:46:09.063Z,2.50
2023-05-14T10:48:37.910Z,2.50
2023-05-14T10:51:09.319Z,2.70
2023-05-14T10:53:42.414Z,2.60
2023-05-14T10:56:12.085Z,2.70
2023-05-14T10:58:44.633Z,2.20
2023-05-14T11:01:13.647Z,2.10
2023-05-14T11:03:45.400Z,2.20
2023-05-14T11:06:15.852Z,2.60
2023-05-14T11:08:44.845Z,2.40
2023-05-14T11:11:12.628Z,2.30
2023-05-14T11:13:41.260Z,2.10
2023-05-14T11:16:21.705Z,2.20
2023-05-14T11:19:02.294Z,2.20
2023-05-14T11:21:31.668Z,2.70
2023-05-14T11:24:00.808Z,2.30
2023-05-14T11:26:28.415Z,2.30
2023-05-14T11:28:56.365Z,2.40
2023-05-14T11:31:25.340Z,2.70
2023-05-14T11:33:53.821Z,3.00
2023-05-14T11:36:22.226Z,2.80
2023-05-14T11:38:51.328Z,2.20
2023-05-14T11:41:21.290Z,2.90
2023-05-14T11:43:48.941Z,4.00
2023-05-14T11:46:18.453Z,2.90
2023-05-14T11:48:46.152Z,2.60
2023-05-14T11:51:13.727Z,2.70
2023-05-14T11:53:41.373Z,2.50
2023-05-14T11:56:09.946Z,2.80
2023-05-14T11:58:38.051Z,2.80
2023-05-14T12:01:05.647Z,2.50
2023-05-14T12:03:33.683Z,2.20
2023-05-14T12:06:07.205Z,2.40
2023-05-14T12:08:34.714Z,2.20
2023-05-14T12:11:02.174Z,2.70
2023-05-14T12:13:31.328Z,2.70
2023-05-14T12:16:02.044Z,2.60
2023-05-14T12:18:32.270Z,2.20
2023-05-14T12:21:04.697Z,2.50
2023-05-14T12:23:32.919Z,2.90
2023-05-14T12:26:09.362Z,3.00
2023-05-14T12:28:43.329Z,3.00
2023-05-14T12:31:11.858Z,2.80
2023-05-14T12:33:39.388Z,2.90
2023-05-14T12:38:37.636Z,3.00
2023-05-14T12:41:05.190Z,3.60
2023-05-14T12:43:32.663Z,3.20
2023-05-14T12:46:00.204Z,3.00
2023-05-14T12:48:27.762Z,3.10
2023-05-14T12:50:56.026Z,3.30
2023-05-14T12:53:23.952Z,3.80
2023-05-14T12:55:51.618Z,3.30
2023-05-14T12:58:19.076Z,3.20
2023-05-14T13:00:46.646Z,3.70
2023-05-14T13:03:14.212Z,3.30
2023-05-14T13:05:41.964Z,3.80
2023-05-14T13:08:10.165Z,3.40
2023-05-14T13:10:37.641Z,3.70
2023-05-14T13:13:05.218Z,3.60
2023-05-14T13:15:33.652Z,4.10
2023-05-14T13:18:01.159Z,3.90
2023-05-14T13:20:30.865Z,3.60
2023-05-14T13:22:58.336Z,3.50
2023-05-14T13:25:27.450Z,3.60
2023-05-14T13:27:55.131Z,3.50
2023-05-14T13:30:22.631Z,3.90
2023-05-14T13:32:50.438Z,3.40
2023-05-14T13:35:18.194Z,3.70
2023-05-14T13:37:46.823Z,3.70
2023-05-14T13:40:14.472Z,3.60
2023-05-14T13:42:42.072Z,3.70
2023-05-14T13:45:09.915Z,3.30
2023-05-14T13:47:37.487Z,3.20
2023-05-14T13:50:05.672Z,3.20
2023-05-14T13:52:33.218Z,3.30
2023-05-14T13:55:00.741Z,3.50
2023-05-14T13:57:28.282Z,3.10
2023-05-14T13:59:55.905Z,3.90
2023-05-14T14:02:23.456Z,3.30
2023-05-14T14:04:50.986Z,3.40
2023-05-14T14:07:18.547Z,3.00
2023-05-14T14:09:45.995Z,3.20
2023-05-14T14:12:13.555Z,3.10
2023-05-14T14:14:41.134Z,3.40
2023-05-14T14:17:09.004Z,2.90
2023-05-14T14:19:36.625Z,3.30
2023-05-14T14:22:04.832Z,3.10
2023-05-14T14:24:32.325Z,3.40
2023-05-14T14:27:00.898Z,3.20
2023-05-14T14:29:30.994Z,3.50
2023-05-14T14:31:59.311Z,3.50
2023-05-14T14:34:27.021Z,3.80
2023-05-14T14:36:54.534Z,3.40
2023-05-14T14:39:24.544Z,3.80
2023-05-14T14:41:52.148Z,3.70
2023-05-14T14:44:19.608Z,4.00
2023-05-14T14:46:47.479Z,3.70
2023-05-14T14:49:15.002Z,3.60
2023-05-14T14:51:43.220Z,3.70
2023-05-14T14:54:10.723Z,3.80
2023-05-14T14:56:39.031Z,3.30
2023-05-14T14:59:06.560Z,4.20
2023-05-14T15:01:34.186Z,4.30
2023-05-14T15:04:01.735Z,4.10
2023-05-14T15:06:29.343Z,4.20
2023-05-14T15:08:57.210Z,3.90
2023-05-14T15:11:24.868Z,3.90
2023-05-14T15:13:52.391Z,3.60
2023-05-14T15:16:19.991Z,3.80
2023-05-14T15:18:47.579Z,4.00
2023-05-14T15:21:15.362Z,3.30
2023-05-14T15:23:42.913Z,3.30
2023-05-14T15:26:10.428Z,2.90
2023-05-14T15:28:38.345Z,3.00
2023-05-14T15:31:05.981Z,2.70
2023-05-14T15:33:34.002Z,3.00
2023-05-14T15:36:01.545Z,2.30
2023-05-14T15:38:29.194Z,2.50
2023-05-14T15:40:56.762Z,2.40
2023-05-14T15:43:24.372Z,2.60
2023-05-14T15:45:51.879Z,5.30
2023-05-14T15:48:19.442Z,4.60
2023-05-14T15:50:49.692Z,3.50
2023-05-14T15:53:17.895Z,3.70
2023-05-14T15:55:48.510Z,4.50
2023-05-14T15:58:16.018Z,2.30
2023-05-14T16:00:43.567Z,2.20
2023-05-14T16:03:12.257Z,2.70
2023-05-14T16:05:41.417Z,2.90
2023-05-14T16:08:09.075Z,2.50
2023-05-14T16:10:37.772Z,3.30
2023-05-14T16:13:05.375Z,7.90
2023-05-14T16:15:32.912Z,3.00
2023-05-14T16:18:00.667Z,2.90
2023-05-14T16:20:28.268Z,3.20
2023-05-14T16:22:55.797Z,3.00
2023-05-14T16:25:23.366Z,4.20
2023-05-14T16:27:50.871Z,3.60
2023-05-14T16:30:18.440Z,2.70
2023-05-14T16:32:49.504Z,3.20
2023-05-14T16:35:17.148Z,3.40
2023-05-14T16:37:44.797Z,3.20
2023-05-14T16:40:12.842Z,3.10
2023-05-14T16:42:40.370Z,3.10
2023-05-14T16:45:08.723Z,3.10
2023-05-14T16:47:36.374Z,3.30
2023-05-14T16:50:03.984Z,2.80
2023-05-14T16:52:31.709Z,2.70
2023-05-14T16:54:59.291Z,2.60
2023-05-14T16:57:26.783Z,2.60
2023-05-14T16:59:54.296Z,3.10
2023-05-14T17:02:21.817Z,2.80
2023-05-14T17:04:49.420Z,2.50
2023-05-14T17:07:17.411Z,2.50
2023-05-14T17:09:45.071Z,2.70
2023-05-14T17:12:13.615Z,2.40
2023-05-14T17:14:42.179Z,2.50
2023-05-14T17:17:09.637Z,2.20
2023-05-14T17:19:37.114Z,2.10
2023-05-14T17:22:06.481Z,2.80
2023-05-14T17:24:35.369Z,2.40
2023-05-14T17:27:02.910Z,2.20
2023-05-14T17:29:30.564Z,2.30
2023-05-14T17:31:58.251Z,2.50
2023-05-14T17:34:25.936Z,2.40
2023-05-14T17:36:53.537Z,2.40
2023-05-14T17:39:20.998Z,2.60
2023-05-14T17:41:48.553Z,2.20
2023-05-14T17:44:16.094Z,2.20
2023-05-14T17:46:45.132Z,2.40
2023-05-14T17:49:12.913Z,2.20
2023-05-14T17:51:40.640Z,2.30
2023-05-14T17:54:08.260Z,2.20
2023-05-14T17:56:35.906Z,2.70
2023-05-14T17:59:03.842Z,2.90
2023-05-14T18:01:31.553Z,2.70
2023-05-14T18:03:59.350Z,2.10
2023-05-14T18:06:27.162Z,2.20
2023-05-14T18:08:57.491Z,2.30
2023-05-14T18:11:25.993Z,2.40
2023-05-14T18:13:53.462Z,2.40
2023-05-14T18:16:21.070Z,3.00
2023-05-14T18:18:48.945Z,2.50
2023-05-14T18:21:17.925Z,2.70
2023-05-14T18:23:45.498Z,2.40
2023-05-14T18:26:12.999Z,2.60
2023-05-14T18:28:40.836Z,2.10
2023-05-14T18:31:08.456Z,2.10
2023-05-14T18:33:36.060Z,2.10
2023-05-14T18:36:03.951Z,2.00
2023-05-14T18:38:31.475Z,2.10
2023-05-14T18:41:01.673Z,2.30
2023-05-14T18:43:29.185Z,2.20
2023-05-14T18:45:56.819Z,5.90
2023-05-14T18:48:24.795Z,5.40
2023-05-14T18:50:52.312Z,4.40
2023-05-14T18:53:20.080Z,3.30
2023-05-14T18:55:47.643Z,2.70
2023-05-14T18:58:15.173Z,2.70
2023-05-14T19:00:42.819Z,3.30
2023-05-14T19:03:10.499Z,2.50
2023-05-14T19:05:39.826Z,2.50
2023-05-14T19:08:07.563Z,2.20
2023-05-14T19:10:35.030Z,2.70
2023-05-14T19:13:02.904Z,2.60
2023-05-14T19:15:30.522Z,3.00
2023-05-14T19:17:58.210Z,5.30
2023-05-14T19:20:26.232Z,11.10
2023-05-14T19:22:53.711Z,10.60
2023-05-14T19:25:21.213Z,11.00
2023-05-14T19:27:51.052Z,9.80
2023-05-14T19:30:19.928Z,8.90
2023-05-14T19:32:47.532Z,10.00
2023-05-14T19:35:15.611Z,13.60
2023-05-14T19:37:43.127Z,13.90
2023-05-14T19:40:11.067Z,21.20
2023-05-14T19:42:38.582Z,16.60
2023-05-14T19:45:06.575Z,14.00
2023-05-14T19:47:34.234Z,17.30
2023-05-14T19:50:01.903Z,11.20
2023-05-14T19:52:29.374Z,8.50
2023-05-14T19:54:56.847Z,16.10
2023-05-14T19:57:24.376Z,12.90
2023-05-14T19:59:51.916Z,14.50
2023-05-14T20:02:21.597Z,11.20
2023-05-14T20:04:49.517Z,7.50
2023-05-14T20:07:17.148Z,4.30
2023-05-14T20:09:44.730Z,4.80
2023-05-14T20:12:13.200Z,2.60
2023-05-14T20:14:41.282Z,2.70
2023-05-14T20:17:09.078Z,2.20
2023-05-14T20:19:36.714Z,2.70
2023-05-14T20:22:04.515Z,2.40
2023-05-14T20:24:31.982Z,2.80
2023-05-14T20:26:59.449Z,2.90
2023-05-14T20:29:26.980Z,2.70
2023-05-14T20:31:54.542Z,2.60
2023-05-14T20:34:22.155Z,3.30
2023-05-14T20:36:50.009Z,3.90
2023-05-14T20:39:18.325Z,3.50
2023-05-14T20:41:45.963Z,6.20
2023-05-14T20:44:13.520Z,7.10
2023-05-14T20:46:41.232Z,6.80
2023-05-14T20:49:08.708Z,3.70
2023-05-14T20:51:36.210Z,3.20
2023-05-14T20:54:04.075Z,3.10
2023-05-14T20:56:31.731Z,4.70
2023-05-14T20:58:59.238Z,5.40
2023-05-14T21:01:26.939Z,3.40
2023-05-14T21:03:54.868Z,2.60
2023-05-14T21:06:22.478Z,3.10
2023-05-14T21:08:53.008Z,3.40
2023-05-14T21:11:21.576Z,2.90
2023-05-14T21:13:49.121Z,2.90
2023-05-14T21:16:16.756Z,3.20
2023-05-14T21:18:44.711Z,3.10
2023-05-14T21:21:12.236Z,3.10
2023-05-14T21:23:40.087Z,3.20
2023-05-14T21:26:07.830Z,3.10
2023-05-14T21:28:35.461Z,3.00
2023-05-14T21:31:02.926Z,3.00
2023-05-14T21:33:30.437Z,3.40
2023-05-14T21:35:58.053Z,3.20
2023-05-14T21:38:25.742Z,3.30
2023-05-14T21:40:53.234Z,3.50
2023-05-14T21:43:20.934Z,3.00
2023-05-14T21:45:48.425Z,3.30
2023-05-14T21:48:16.068Z,3.20
2023-05-14T21:50:43.654Z,3.20
2023-05-14T21:53:11.217Z,3.20
2023-05-14T21:55:38.965Z,3.00
2023-05-14T21:58:07.501Z,3.10
2023-05-14T22:00:34.977Z,3.10
2023-05-14T22:03:02.635Z,3.40
2023-05-14T22:05:30.216Z,3.50
2023-05-14T22:07:57.729Z,3.10
2023-05-14T22:10:25.380Z,3.20
2023-05-14T22:12:52.846Z,3.10
2023-05-14T22:15:20.539Z,3.30
2023-05-14T22:17:48.216Z,3.50
2023-05-14T22:20:16.358Z,3.70
2023-05-14T22:22:43.853Z,3.80
2023-05-14T22:25:11.442Z,3.20
2023-05-14T22:27:39.053Z,3.80
2023-05-14T22:30:07.421Z,3.40
2023-05-14T22:32:35.014Z,3.50
2023-05-14T22:35:03.209Z,3.30
2023-05-14T22:37:30.798Z,3.30
2023-05-14T22:39:58.291Z,3.10
2023-05-14T22:42:26.720Z,3.30
2023-05-14T22:44:54.315Z,3.10
2023-05-14T22:47:21.954Z,3.20
2023-05-14T22:49:49.655Z,3.40
2023-05-14T22:52:18.838Z,3.10
2023-05-14T22:54:46.708Z,3.10
2023-05-14T22:57:14.286Z,3.20
2023-05-14T22:59:41.800Z,2.70
2023-05-14T23:02:09.489Z,3.30
2023-05-14T23:04:37.336Z,3.00
2023-05-14T23:07:04.877Z,3.00
2023-05-14T23:09:32.450Z,3.00
2023-05-14T23:12:00.444Z,2.70
2023-05-14T23:14:27.990Z,2.60
2023-05-14T23:16:55.517Z,3.00
2023-05-14T23:19:23.303Z,2.90
2023-05-14T23:21:51.017Z,3.10
2023-05-14T23:24:18.511Z,2.80
2023-05-14T23:26:45.958Z,2.80
2023-05-14T23:29:13.744Z,3.20
2023-05-14T23:31:42.431Z,2.80
2023-05-14T23:34:10.005Z,2.90
2023-05-14T23:36:37.581Z,2.80
2023-05-14T23:39:06.841Z,3.00
2023-05-14T23:41:34.401Z,2.90
2023-05-14T23:44:02.149Z,3.10
2023-05-14T23:46:30.205Z,2.90
2023-05-14T23:48:57.962Z,2.70
2023-05-14T23:51:27.864Z,2.70
2023-05-14T23:54:00.739Z,2.70
2023-05-14T23:56:31.738Z,2.80
2023-05-14T23:58:59.501Z,3.00
